createdAt,value
2019-06-01T00:00:58.011Z,15.57
2019-06-01T00:03:27.387Z,12.60
2019-06-01T00:05:56.874Z,15.47
2019-06-01T00:08:26.245Z,12.97
2019-06-01T00:10:55.654Z,12.70
2019-06-01T00:13:25.075Z,12.53
2019-06-01T00:15:54.446Z,12.83
2019-06-01T00:18:23.935Z,12.13
2019-06-01T00:20:54.790Z,13.07
2019-06-01T00:23:24.455Z,12.30
2019-06-01T00:25:53.866Z,11.63
2019-06-01T00:28:23.450Z,12.73
2019-06-01T00:30:52.897Z,11.37
2019-06-01T00:33:23.050Z,11.80
2019-06-01T00:35:52.483Z,15.43
2019-06-01T00:38:21.865Z,14.17
2019-06-01T00:40:52.042Z,12.40
2019-06-01T00:43:21.576Z,12.20
2019-06-01T00:45:51.030Z,12.67
2019-06-01T00:48:20.535Z,12.63
2019-06-01T00:50:51.008Z,11.23
2019-06-01T00:53:20.474Z,12.10
2019-06-01T00:55:51.823Z,13.87
2019-06-01T00:58:21.226Z,12.33
2019-06-01T01:00:51.989Z,15.73
2019-06-01T01:03:22.917Z,13.27
2019-06-01T01:05:52.727Z,13.23
2019-06-01T01:08:22.207Z,13.03
2019-06-01T01:10:52.998Z,12.53
2019-06-01T01:13:24.590Z,11.00
2019-06-01T01:15:54.091Z,13.27
2019-06-01T01:18:23.546Z,14.00
2019-06-01T01:20:54.757Z,14.00
2019-06-01T01:23:24.192Z,11.87
2019-06-01T01:25:54.566Z,13.00
2019-06-01T01:28:25.313Z,13.77
2019-06-01T01:31:06.534Z,14.10
2019-06-01T01:33:27.642Z,13.17
2019-06-01T01:35:58.093Z,15.10
2019-06-01T01:38:27.600Z,12.73
2019-06-01T01:40:59.235Z,13.50
2019-06-01T01:43:28.239Z,11.80
2019-06-01T01:45:58.973Z,11.83
2019-06-01T01:48:29.763Z,13.20
2019-06-01T01:50:59.190Z,14.53
2019-06-01T01:53:28.765Z,11.60
2019-06-01T01:55:59.062Z,13.60
2019-06-01T01:58:28.518Z,11.27
2019-06-01T02:00:58.561Z,14.50
2019-06-01T02:03:29.254Z,12.53
2019-06-01T02:05:59.965Z,15.90
2019-06-01T02:08:30.550Z,12.03
2019-06-01T02:10:59.868Z,14.13
2019-06-01T02:13:29.260Z,15.10
2019-06-01T02:16:00.402Z,11.10
2019-06-01T02:18:29.796Z,10.53
2019-06-01T02:21:00.389Z,17.60
2019-06-01T02:23:29.980Z,19.77
2019-06-01T02:25:59.464Z,20.80
2019-06-01T02:28:29.019Z,19.13
2019-06-01T02:30:59.765Z,22.20
2019-06-01T02:33:29.595Z,18.97
2019-06-01T02:36:00.614Z,20.97
2019-06-01T02:38:30.718Z,23.13
2019-06-01T02:41:01.219Z,20.03
2019-06-01T02:43:50.762Z,21.63
2019-06-01T02:46:20.250Z,20.63
2019-06-01T02:48:49.679Z,21.57
2019-06-01T02:51:20.412Z,20.17
2019-06-01T02:53:49.745Z,21.13
2019-06-01T02:56:19.249Z,22.60
2019-06-01T02:58:49.049Z,22.73
2019-06-01T03:01:56.675Z,23.23
2019-06-01T03:04:16.162Z,25.30
2019-06-01T03:06:47.604Z,25.83
2019-06-01T03:09:20.081Z,27.33
2019-06-01T03:12:10.137Z,29.20
2019-06-01T03:14:42.071Z,26.27
2019-06-01T03:17:14.835Z,30.73
2019-06-01T03:19:46.662Z,27.87
2019-06-01T03:22:17.952Z,28.80
2019-06-01T03:24:49.559Z,29.90
2019-06-01T03:27:21.886Z,28.50
2019-06-01T03:29:56.661Z,31.00
2019-06-01T03:32:35.915Z,31.70
2019-06-01T03:34:57.211Z,30.17
2019-06-01T03:37:29.195Z,32.73
2019-06-01T03:39:59.117Z,31.47
2019-06-01T03:42:28.490Z,33.80
2019-06-01T03:44:58.262Z,33.90
2019-06-01T03:47:27.661Z,33.67
2019-06-01T03:49:57.054Z,35.50
2019-06-01T03:52:26.459Z,29.57
2019-06-01T03:54:55.826Z,29.53
2019-06-01T03:57:25.217Z,30.73
2019-06-01T03:59:54.678Z,30.70
2019-06-01T04:02:32.743Z,33.10
2019-06-01T04:04:56.292Z,31.40
2019-06-01T04:07:27.210Z,34.37
2019-06-01T04:09:56.596Z,29.37
2019-06-01T04:12:25.970Z,33.53
2019-06-01T04:14:55.503Z,31.83
2019-06-01T04:17:24.934Z,31.20
2019-06-01T04:19:54.283Z,28.27
2019-06-01T04:22:25.042Z,27.07
2019-06-01T04:25:14.879Z,26.33
2019-06-01T04:27:44.373Z,26.43
2019-06-01T04:30:14.028Z,22.53
2019-06-01T04:32:49.796Z,21.93
2019-06-01T04:35:14.602Z,19.97
2019-06-01T04:37:45.270Z,20.70
2019-06-01T04:40:15.107Z,19.90
2019-06-01T04:42:44.948Z,19.63
2019-06-01T04:45:14.449Z,22.17
2019-06-01T04:47:43.938Z,19.87
2019-06-01T04:50:14.797Z,18.80
2019-06-01T04:52:44.286Z,15.97
2019-06-01T04:55:15.053Z,16.30
2019-06-01T04:57:46.275Z,17.13
2019-06-01T05:00:25.687Z,18.33
2019-06-01T05:02:47.203Z,14.33
2019-06-01T05:05:18.651Z,14.43
2019-06-01T05:07:47.992Z,13.07
2019-06-01T05:10:17.459Z,12.23
2019-06-01T05:12:48.347Z,13.83
2019-06-01T05:15:19.228Z,10.80
2019-06-01T05:17:48.765Z,12.83
2019-06-01T05:20:18.306Z,14.80
2019-06-01T05:22:47.721Z,13.13
2019-06-01T05:25:17.252Z,12.47
2019-06-01T05:27:48.649Z,12.50
2019-06-01T05:30:18.607Z,11.27
2019-06-01T05:32:48.083Z,9.90
2019-06-01T05:35:18.019Z,13.47
2019-06-01T05:37:47.565Z,13.13
2019-06-01T05:40:17.220Z,10.80
2019-06-01T05:42:48.028Z,14.00
2019-06-01T05:45:19.182Z,9.97
2019-06-01T05:47:50.066Z,10.07
2019-06-01T05:50:22.736Z,11.17
2019-06-01T05:52:52.316Z,11.37
2019-06-01T05:55:22.978Z,8.73
2019-06-01T05:57:53.716Z,8.00
2019-06-01T06:00:44.789Z,8.87
2019-06-01T06:03:16.262Z,7.37
2019-06-01T06:05:45.388Z,8.37
2019-06-01T06:08:16.063Z,8.67
2019-06-01T06:10:45.791Z,12.63
2019-06-01T06:13:15.375Z,9.17
2019-06-01T06:15:46.104Z,9.20
2019-06-01T06:18:15.800Z,9.23
2019-06-01T06:20:45.338Z,9.60
2019-06-01T06:23:14.664Z,8.10
2019-06-01T06:25:44.171Z,9.15
2019-06-01T06:28:14.563Z,7.75
2019-06-01T06:30:44.058Z,10.88
2019-06-01T06:33:13.457Z,10.82
2019-06-01T06:35:42.901Z,8.70
2019-06-01T06:38:13.403Z,6.72
2019-06-01T06:40:43.075Z,7.53
2019-06-01T06:43:22.416Z,6.30
2019-06-01T06:45:44.071Z,5.53
2019-06-01T06:48:14.887Z,5.40
2019-06-01T06:50:44.599Z,6.47
2019-06-01T06:53:25.414Z,8.15
2019-06-01T06:55:45.170Z,5.12
2019-06-01T06:58:14.531Z,5.37
2019-06-01T07:00:43.893Z,7.12
2019-06-01T07:03:13.314Z,5.22
2019-06-01T07:05:42.822Z,6.35
2019-06-01T07:08:12.272Z,5.17
2019-06-01T07:10:41.749Z,3.95
2019-06-01T07:13:11.114Z,7.62
2019-06-01T07:15:40.519Z,5.67
2019-06-01T07:18:09.987Z,5.15
2019-06-01T07:20:39.414Z,3.55
2019-06-01T07:23:08.754Z,4.37
2019-06-01T07:25:38.240Z,5.97
2019-06-01T07:28:07.720Z,5.95
2019-06-01T07:30:49.674Z,6.05
2019-06-01T07:33:08.404Z,6.62
2019-06-01T07:35:37.841Z,7.70
2019-06-01T07:38:07.215Z,7.90
2019-06-01T07:40:36.639Z,6.40
2019-06-01T07:43:06.041Z,4.63
2019-06-01T07:45:35.955Z,7.15
2019-06-01T07:48:05.498Z,4.50
2019-06-01T07:50:34.842Z,5.30
2019-06-01T07:53:04.211Z,4.80
2019-06-01T07:55:33.878Z,4.03
2019-06-01T07:58:03.324Z,6.25
2019-06-01T08:00:34.162Z,8.10
2019-06-01T08:03:04.015Z,4.10
2019-06-01T08:05:33.474Z,6.20
2019-06-01T08:08:02.935Z,4.72
2019-06-01T08:10:32.427Z,3.45
2019-06-01T08:13:01.914Z,4.23
2019-06-01T08:15:31.869Z,6.80
2019-06-01T08:18:01.471Z,7.63
2019-06-01T08:20:32.147Z,5.27
2019-06-01T08:23:03.037Z,8.03
2019-06-01T08:25:33.730Z,5.43
2019-06-01T08:30:43.793Z,7.47
2019-06-01T08:33:13.232Z,5.93
2019-06-01T08:35:45.303Z,5.50
2019-06-01T08:38:14.747Z,3.03
2019-06-01T08:40:44.144Z,3.90
2019-06-01T08:43:13.696Z,4.30
2019-06-01T08:45:43.534Z,7.57
2019-06-01T08:48:13.537Z,3.67
2019-06-01T08:50:46.021Z,7.40
2019-06-01T08:53:15.299Z,7.90
2019-06-01T08:55:44.650Z,7.07
2019-06-01T08:58:14.080Z,8.13
2019-06-01T09:00:43.487Z,6.07
2019-06-01T09:03:12.910Z,6.07
2019-06-01T09:05:42.329Z,9.87
2019-06-01T09:08:11.683Z,7.40
2019-06-01T09:10:43.757Z,4.30
2019-06-01T09:13:13.129Z,6.67
2019-06-01T09:15:42.594Z,4.20
2019-06-01T09:18:11.939Z,3.37
2019-06-01T09:20:43.630Z,8.70
2019-06-01T09:23:13.078Z,4.63
2019-06-01T09:25:42.507Z,8.20
2019-06-01T09:28:13.063Z,7.30
2019-06-01T09:30:42.443Z,8.40
2019-06-01T09:33:11.867Z,2.90
2019-06-01T09:35:54.359Z,8.67
2019-06-01T09:38:12.429Z,8.33
2019-06-01T09:40:43.115Z,6.70
2019-06-01T09:43:12.744Z,8.30
2019-06-01T09:45:42.295Z,6.83
2019-06-01T09:48:11.782Z,10.33
2019-06-01T09:50:41.923Z,9.03
2019-06-01T09:53:11.335Z,14.20
2019-06-01T09:55:40.776Z,13.57
2019-06-01T09:58:10.250Z,11.20
2019-06-01T10:00:43.204Z,13.17
2019-06-01T10:03:12.479Z,14.20
2019-06-01T10:05:41.896Z,12.07
2019-06-01T10:08:11.344Z,14.90
2019-06-01T10:10:40.673Z,17.37
2019-06-01T10:13:10.067Z,17.63
2019-06-01T10:15:39.757Z,18.80
2019-06-01T10:18:09.165Z,14.40
2019-06-01T10:20:39.197Z,16.10
2019-06-01T10:23:08.807Z,14.70
2019-06-01T10:25:38.631Z,14.03
2019-06-01T10:28:08.145Z,14.30
2019-06-01T10:30:37.928Z,13.70
2019-06-01T10:33:07.597Z,13.43
2019-06-01T10:35:37.011Z,16.40
2019-06-01T10:38:07.553Z,14.80
2019-06-01T10:40:39.315Z,15.40
2019-06-01T10:43:09.212Z,13.73
2019-06-01T10:45:39.878Z,13.87
2019-06-01T10:48:09.349Z,12.13
2019-06-01T10:50:40.476Z,13.83
2019-06-01T10:53:10.335Z,13.23
2019-06-01T10:55:40.326Z,10.33
2019-06-01T10:58:09.828Z,11.73
2019-06-01T11:00:46.686Z,9.97
2019-06-01T11:03:10.342Z,9.20
2019-06-01T11:05:40.521Z,7.70
2019-06-01T11:08:10.273Z,7.60
2019-06-01T11:10:40.947Z,6.07
2019-06-01T11:13:10.453Z,8.00
2019-06-01T11:15:41.193Z,8.20
2019-06-01T11:18:10.577Z,8.67
2019-06-01T11:20:39.953Z,11.03
2019-06-01T11:23:09.414Z,8.77
2019-06-01T11:25:39.624Z,11.43
2019-06-01T11:28:09.156Z,8.27
2019-06-01T11:30:39.851Z,7.57
2019-06-01T11:33:09.534Z,8.47
2019-06-01T11:35:39.177Z,7.47
2019-06-01T11:38:08.747Z,6.73
2019-06-01T11:40:38.628Z,7.20
2019-06-01T11:43:08.016Z,7.60
2019-06-01T11:45:38.740Z,5.47
2019-06-01T11:48:08.237Z,6.07
2019-06-01T11:50:38.728Z,5.10
2019-06-01T11:53:08.466Z,7.80
2019-06-01T11:55:39.227Z,8.83
2019-06-01T11:58:08.710Z,5.33
2019-06-01T12:00:39.275Z,5.90
2019-06-01T12:03:08.994Z,10.43
2019-06-01T12:05:39.863Z,7.73
2019-06-01T12:08:09.415Z,7.87
2019-06-01T12:10:39.013Z,6.63
2019-06-01T12:13:08.570Z,7.60
2019-06-01T12:15:38.463Z,11.67
2019-06-01T12:18:07.947Z,7.97
2019-06-01T12:20:38.542Z,10.57
2019-06-01T12:23:08.407Z,5.37
2019-06-01T12:25:38.212Z,7.90
2019-06-01T12:28:07.805Z,12.90
2019-06-01T12:30:37.495Z,28.50
2019-06-01T12:33:07.115Z,9.20
2019-06-01T12:35:37.796Z,7.63
2019-06-01T12:38:07.435Z,7.63
2019-06-01T12:40:36.899Z,7.20
2019-06-01T12:43:06.222Z,7.77
2019-06-01T12:45:35.692Z,8.03
2019-06-01T12:48:05.273Z,8.07
2019-06-01T12:50:34.653Z,7.00
2019-06-01T12:53:04.090Z,4.93
2019-06-01T12:55:33.437Z,6.23
2019-06-01T12:58:02.967Z,7.33
2019-06-01T13:00:32.383Z,5.80
2019-06-01T13:03:07.440Z,4.27
2019-06-01T13:05:32.925Z,7.30
2019-06-01T13:08:03.135Z,6.50
2019-06-01T13:10:32.617Z,6.40
2019-06-01T13:13:02.057Z,5.83
2019-06-01T13:15:31.811Z,5.37
2019-06-01T13:18:01.254Z,4.87
2019-06-01T13:20:31.840Z,5.30
2019-06-01T13:23:01.334Z,5.63
2019-06-01T13:25:30.765Z,8.27
2019-06-01T13:28:00.131Z,8.27
2019-06-01T13:30:29.536Z,6.33
2019-06-01T13:32:59.083Z,5.37
2019-06-01T13:35:28.503Z,5.93
2019-06-01T13:38:10.475Z,8.63
2019-06-01T13:40:28.946Z,6.13
2019-06-01T13:42:58.348Z,7.63
2019-06-01T13:45:27.895Z,5.40
2019-06-01T13:47:57.275Z,8.00
2019-06-01T13:50:26.851Z,9.73
2019-06-01T13:52:56.338Z,6.50
2019-06-01T13:55:25.753Z,7.17
2019-06-01T13:57:56.318Z,7.27
2019-06-01T14:00:30.687Z,8.47
2019-06-01T14:02:57.744Z,8.33
2019-06-01T14:05:27.442Z,7.17
2019-06-01T14:07:57.172Z,7.90
2019-06-01T14:10:26.647Z,7.60
2019-06-01T14:12:55.975Z,8.73
2019-06-01T14:15:25.367Z,8.07
2019-06-01T14:17:54.772Z,10.20
2019-06-01T14:20:24.185Z,8.60
2019-06-01T14:22:54.088Z,8.90
2019-06-01T14:25:23.708Z,6.90
2019-06-01T14:27:54.330Z,7.43
2019-06-01T14:30:24.272Z,6.13
2019-06-01T14:32:54.435Z,5.80
2019-06-01T14:35:23.956Z,6.30
2019-06-01T14:37:55.142Z,7.30
2019-06-01T14:40:24.802Z,9.67
2019-06-01T14:42:55.746Z,6.00
2019-06-01T14:45:25.690Z,5.97
2019-06-01T14:47:55.591Z,35.33
2019-06-01T14:50:25.097Z,6.50
2019-06-01T14:52:55.650Z,5.23
2019-06-01T14:55:26.971Z,7.67
2019-06-01T14:57:56.363Z,8.73
2019-06-01T15:00:26.111Z,4.77
2019-06-01T15:02:56.362Z,5.50
2019-06-01T15:05:26.037Z,9.57
2019-06-01T15:07:57.045Z,3.73
2019-06-01T15:10:26.705Z,8.83
2019-06-01T15:13:00.849Z,6.83
2019-06-01T15:15:27.511Z,6.53
2019-06-01T15:17:57.574Z,8.33
2019-06-01T15:20:27.075Z,7.80
2019-06-01T15:22:56.424Z,6.90
2019-06-01T15:25:25.776Z,9.60
2019-06-01T15:27:55.242Z,5.47
2019-06-01T15:30:25.205Z,5.13
2019-06-01T15:32:54.661Z,7.77
2019-06-01T15:35:24.126Z,7.23
2019-06-01T15:37:57.170Z,5.73
2019-06-01T15:40:24.688Z,5.50
2019-06-01T15:42:55.164Z,6.57
2019-06-01T15:45:25.038Z,6.43
2019-06-01T15:47:55.560Z,5.60
2019-06-01T15:50:25.073Z,9.27
2019-06-01T15:52:54.984Z,5.63
2019-06-01T15:55:24.647Z,6.70
2019-06-01T15:57:54.290Z,5.70
2019-06-01T16:00:24.557Z,5.40
2019-06-01T16:02:54.789Z,5.33
2019-06-01T16:05:24.812Z,6.77
2019-06-01T16:07:55.084Z,5.90
2019-06-01T16:10:24.627Z,6.17
2019-06-01T16:12:55.247Z,4.37
2019-06-01T16:15:24.876Z,4.57
2019-06-01T16:17:54.279Z,5.37
2019-06-01T16:20:23.637Z,10.17
2019-06-01T16:22:53.923Z,7.47
2019-06-01T16:25:23.287Z,8.60
2019-06-01T16:27:52.677Z,6.93
2019-06-01T16:30:22.089Z,11.93
2019-06-01T16:32:51.947Z,10.07
2019-06-01T16:35:21.366Z,6.27
2019-06-01T16:37:52.034Z,6.03
2019-06-01T16:40:21.561Z,8.50
2019-06-01T16:42:51.046Z,6.67
2019-06-01T16:45:20.427Z,5.37
2019-06-01T16:47:50.985Z,6.43
2019-06-01T16:50:20.566Z,9.17
2019-06-01T16:52:50.019Z,6.27
2019-06-01T16:55:21.356Z,4.63
2019-06-01T16:57:50.968Z,9.60
2019-06-01T17:00:24.319Z,4.63
2019-06-01T17:02:56.643Z,4.53
2019-06-01T17:05:26.392Z,8.13
2019-06-01T17:07:56.631Z,6.37
2019-06-01T17:10:26.893Z,8.50
2019-06-01T17:12:56.860Z,9.17
2019-06-01T17:15:26.488Z,8.37
2019-06-01T17:17:57.250Z,4.70
2019-06-01T17:21:01.453Z,6.33
2019-06-01T17:23:33.161Z,4.40
2019-06-01T17:26:02.147Z,6.57
2019-06-01T17:28:31.836Z,4.27
2019-06-01T17:31:02.313Z,4.13
2019-06-01T17:33:32.897Z,3.07
2019-06-01T17:36:02.806Z,4.83
2019-06-01T17:38:34.048Z,2.97
2019-06-01T17:41:04.254Z,3.50
2019-06-01T17:43:34.392Z,3.20
2019-06-01T17:46:05.324Z,3.43
2019-06-01T17:48:34.859Z,4.63
2019-06-01T17:51:04.717Z,4.07
2019-06-01T17:53:34.106Z,3.37
2019-06-01T17:56:03.951Z,5.37
2019-06-01T17:58:33.542Z,5.40
2019-06-01T18:01:04.243Z,4.47
2019-06-01T18:03:34.127Z,5.83
2019-06-01T18:06:03.738Z,4.60
2019-06-01T18:08:33.224Z,5.97
2019-06-01T18:11:03.863Z,12.57
2019-06-01T18:13:33.445Z,5.03
2019-06-01T18:16:03.381Z,8.03
2019-06-01T18:18:33.965Z,6.07
2019-06-01T18:21:04.171Z,10.13
2019-06-01T18:23:34.737Z,9.93
2019-06-01T18:26:05.091Z,6.07
2019-06-01T18:28:34.630Z,10.23
2019-06-01T18:31:04.557Z,15.23
2019-06-01T18:33:36.650Z,7.17
2019-06-01T18:36:07.445Z,4.80
2019-06-01T18:38:37.050Z,8.70
2019-06-01T18:41:14.614Z,9.13
2019-06-01T18:43:37.713Z,8.93
2019-06-01T18:46:08.091Z,7.27
2019-06-01T18:48:37.621Z,4.90
2019-06-01T18:51:08.150Z,4.33
2019-06-01T18:53:37.649Z,7.37
2019-06-01T18:56:08.200Z,7.43
2019-06-01T18:58:38.018Z,7.33
2019-06-01T19:01:08.420Z,7.23
2019-06-01T19:03:37.958Z,11.87
2019-06-01T19:06:09.560Z,5.30
2019-06-01T19:08:39.023Z,7.87
2019-06-01T19:11:18.479Z,6.17
2019-06-01T19:13:51.540Z,10.07
2019-06-01T19:16:20.962Z,8.60
2019-06-01T19:18:50.335Z,4.83
2019-06-01T19:21:19.735Z,4.60
2019-06-01T19:23:49.223Z,9.23
2019-06-01T19:26:18.705Z,8.43
2019-06-01T19:28:48.150Z,9.07
2019-06-01T19:31:36.704Z,7.70
2019-06-01T19:34:06.843Z,9.07
2019-06-01T19:36:38.632Z,10.97
2019-06-01T19:39:28.834Z,7.23
2019-06-01T19:41:58.191Z,6.47
2019-06-01T19:44:27.594Z,8.93
2019-06-01T19:46:58.103Z,15.53
2019-06-01T19:49:27.528Z,10.57
2019-06-01T19:51:56.907Z,10.20
2019-06-01T19:54:26.392Z,8.33
2019-06-01T19:56:55.826Z,10.07
2019-06-01T19:59:25.151Z,7.30
2019-06-01T20:01:54.621Z,7.30
2019-06-01T20:04:24.130Z,9.20
2019-06-01T20:06:53.459Z,7.57
2019-06-01T20:09:24.069Z,6.97
2019-06-01T20:12:02.005Z,7.27
2019-06-01T20:14:26.718Z,7.97
2019-06-01T20:16:56.213Z,6.00
2019-06-01T20:19:25.747Z,6.00
2019-06-01T20:21:55.264Z,7.93
2019-06-01T20:24:25.873Z,10.40
2019-06-01T20:26:55.429Z,9.57
2019-06-01T20:29:25.137Z,9.60
2019-06-01T20:31:56.278Z,8.07
2019-06-01T20:34:25.681Z,7.63
2019-06-01T20:36:55.262Z,9.30
2019-06-01T20:39:24.740Z,8.87
2019-06-01T20:41:54.535Z,11.33
2019-06-01T20:44:23.994Z,9.93
2019-06-01T20:46:53.400Z,8.10
2019-06-01T20:49:22.774Z,10.37
2019-06-01T20:51:52.178Z,10.00
2019-06-01T20:54:23.470Z,9.40
2019-06-01T20:56:52.905Z,14.77
2019-06-01T20:59:23.472Z,8.83
2019-06-01T21:01:55.000Z,10.70
2019-06-01T21:04:24.408Z,10.57
2019-06-01T21:06:53.915Z,6.83
2019-06-01T21:09:24.359Z,8.30
2019-06-01T21:11:55.695Z,8.37
2019-06-01T21:14:25.612Z,8.27
2019-06-01T21:16:55.405Z,10.27
2019-06-01T21:19:26.659Z,7.97
2019-06-01T21:21:56.115Z,8.57
2019-06-01T21:24:25.627Z,6.97
2019-06-01T21:26:55.155Z,6.50
2019-06-01T21:29:25.152Z,10.47
2019-06-01T21:31:54.744Z,7.70
2019-06-01T21:34:25.586Z,8.60
2019-06-01T21:36:56.261Z,6.97
2019-06-01T21:39:25.606Z,9.00
2019-06-01T21:41:55.121Z,8.93
2019-06-01T21:44:25.673Z,6.93
2019-06-01T21:46:56.307Z,7.87
2019-06-01T21:49:25.923Z,7.23
2019-06-01T21:51:55.391Z,7.33
2019-06-01T21:54:24.806Z,7.37
2019-06-01T21:56:54.288Z,7.73
2019-06-01T21:59:24.916Z,8.67
2019-06-01T22:01:54.460Z,6.47
2019-06-01T22:04:25.347Z,6.23
2019-06-01T22:06:54.939Z,6.30
2019-06-01T22:09:25.293Z,6.30
2019-06-01T22:11:54.987Z,13.07
2019-06-01T22:14:26.154Z,8.27
2019-06-01T22:16:55.504Z,6.93
2019-06-01T22:19:25.857Z,7.00
2019-06-01T22:21:55.499Z,7.67
2019-06-01T22:24:26.542Z,7.40
2019-06-01T22:26:57.325Z,8.97
2019-06-01T22:29:26.711Z,7.73
2019-06-01T22:31:56.205Z,7.40
2019-06-01T22:34:26.860Z,8.67
2019-06-01T22:36:56.754Z,11.03
2019-06-01T22:39:26.933Z,10.10
2019-06-01T22:41:56.503Z,10.27
2019-06-01T22:44:26.218Z,7.83
2019-06-01T22:46:56.961Z,8.87
2019-06-01T22:49:26.856Z,7.67
2019-06-01T22:51:57.539Z,9.47
2019-06-01T22:54:29.256Z,7.40
2019-06-01T22:56:58.947Z,7.80
2019-06-01T22:59:28.718Z,10.00
2019-06-01T23:01:58.427Z,7.30
2019-06-01T23:04:29.183Z,7.53
2019-06-01T23:06:59.132Z,7.40
2019-06-01T23:09:29.708Z,7.30
2019-06-01T23:11:59.199Z,8.20
2019-06-01T23:14:29.495Z,6.20
2019-06-01T23:16:59.167Z,6.93
2019-06-01T23:19:29.835Z,6.47
2019-06-01T23:22:00.464Z,7.80
2019-06-01T23:24:30.317Z,7.00
2019-06-01T23:26:59.862Z,5.53
2019-06-01T23:29:30.229Z,8.30
2019-06-01T23:31:59.798Z,7.93
2019-06-01T23:34:30.966Z,6.80
2019-06-01T23:37:01.601Z,6.20
2019-06-01T23:39:31.035Z,6.63
2019-06-01T23:42:00.423Z,7.27
2019-06-01T23:44:32.486Z,5.33
2019-06-01T23:47:02.050Z,5.47
2019-06-01T23:49:31.423Z,6.40
2019-06-01T23:52:00.875Z,7.00
2019-06-01T23:54:32.447Z,6.10
2019-06-01T23:57:02.158Z,5.77
2019-06-01T23:59:32.514Z,5.63
